createdAt,value
2017-10-06T00:02:14.717Z,51.08
2017-10-06T00:04:42.209Z,51.13
2017-10-06T00:07:09.950Z,51.13
2017-10-06T00:09:37.433Z,51.09
2017-10-06T00:12:06.480Z,51.10
2017-10-06T00:14:33.995Z,51.07
2017-10-06T00:17:01.483Z,51.07
2017-10-06T00:19:29.150Z,51.07
2017-10-06T00:21:56.669Z,51.14
2017-10-06T00:24:24.162Z,51.08
2017-10-06T00:26:51.667Z,51.10
2017-10-06T00:29:19.192Z,51.10
2017-10-06T00:31:46.673Z,51.09
2017-10-06T00:34:14.154Z,51.12
2017-10-06T00:36:41.707Z,51.10
2017-10-06T00:39:09.188Z,51.13
2017-10-06T00:41:36.673Z,51.13
2017-10-06T00:44:05.681Z,51.12
2017-10-06T00:46:33.178Z,51.13
2017-10-06T00:49:00.666Z,51.13
2017-10-06T00:51:28.196Z,51.13
2017-10-06T00:53:55.690Z,51.18
2017-10-06T00:56:23.190Z,51.08
2017-10-06T00:58:50.743Z,51.12
2017-10-06T01:01:18.233Z,51.07
2017-10-06T01:03:45.731Z,51.12
2017-10-06T01:06:13.691Z,51.10
2017-10-06T01:08:41.218Z,51.13
2017-10-06T01:11:08.744Z,51.13
2017-10-06T01:13:36.276Z,51.15
2017-10-06T01:16:03.781Z,51.12
2017-10-06T01:18:31.301Z,51.10
2017-10-06T01:20:59.042Z,51.11
2017-10-06T01:23:26.550Z,51.14
2017-10-06T01:25:54.049Z,51.11
2017-10-06T01:28:21.646Z,51.09
2017-10-06T01:30:49.126Z,51.16
2017-10-06T01:33:16.622Z,51.07
2017-10-06T01:35:44.170Z,51.14
2017-10-06T01:38:11.658Z,51.08
2017-10-06T01:40:39.150Z,51.06
2017-10-06T01:43:06.667Z,51.04
2017-10-06T01:45:34.379Z,51.05
2017-10-06T01:48:01.876Z,51.04
2017-10-06T01:50:29.887Z,51.05
2017-10-06T01:52:57.370Z,51.04
2017-10-06T01:55:24.853Z,51.07
2017-10-06T01:57:52.375Z,51.01
2017-10-06T02:00:19.986Z,51.00
2017-10-06T02:02:47.473Z,51.00
2017-10-06T02:05:15.442Z,51.04
2017-10-06T02:07:42.943Z,51.01
2017-10-06T02:10:10.426Z,50.99
2017-10-06T02:12:37.976Z,50.96
2017-10-06T02:15:05.478Z,50.93
2017-10-06T02:17:32.970Z,50.99
2017-10-06T02:20:00.499Z,50.98
2017-10-06T02:22:27.995Z,50.96
2017-10-06T02:24:55.480Z,51.01
2017-10-06T02:27:23.010Z,51.02
2017-10-06T02:29:50.500Z,50.96
2017-10-06T02:32:17.983Z,50.96
2017-10-06T02:34:45.535Z,50.96
2017-10-06T02:37:13.057Z,50.95
2017-10-06T02:39:40.541Z,50.99
2017-10-06T02:42:08.067Z,50.90
2017-10-06T02:44:35.594Z,50.97
2017-10-06T02:47:03.086Z,50.94
2017-10-06T02:49:30.791Z,50.92
2017-10-06T02:51:58.284Z,50.96
2017-10-06T02:54:25.934Z,50.90
2017-10-06T02:56:53.452Z,50.91
2017-10-06T02:59:20.934Z,51.01
2017-10-06T03:01:48.430Z,50.90
2017-10-06T03:04:16.142Z,50.89
2017-10-06T03:06:43.632Z,50.92
2017-10-06T03:09:11.212Z,50.88
2017-10-06T03:11:38.750Z,50.85
2017-10-06T03:14:06.236Z,50.87
2017-10-06T03:16:33.730Z,50.94
2017-10-06T03:19:01.394Z,50.91
2017-10-06T03:21:28.891Z,50.89
2017-10-06T03:23:56.385Z,50.93
2017-10-06T03:26:23.917Z,50.86
2017-10-06T03:28:51.402Z,50.85
2017-10-06T03:31:18.888Z,50.92
2017-10-06T03:33:46.765Z,50.87
2017-10-06T03:36:14.268Z,50.86
2017-10-06T03:38:41.753Z,50.89
2017-10-06T03:41:09.279Z,50.89
2017-10-06T03:43:36.766Z,50.83
2017-10-06T03:46:04.255Z,50.87
2017-10-06T03:48:31.787Z,50.88
2017-10-06T03:50:59.266Z,50.89
2017-10-06T03:53:26.840Z,50.84
2017-10-06T03:55:54.358Z,50.87
2017-10-06T03:58:21.858Z,50.78
2017-10-06T04:00:49.355Z,50.78
2017-10-06T04:03:16.884Z,50.79
2017-10-06T04:05:44.372Z,50.72
2017-10-06T04:08:11.866Z,50.70
2017-10-06T04:10:39.397Z,50.68
2017-10-06T04:13:06.896Z,50.66
2017-10-06T04:15:34.395Z,50.60
2017-10-06T04:18:02.296Z,50.63
2017-10-06T04:20:29.904Z,50.59
2017-10-06T04:22:57.409Z,50.59
2017-10-06T04:25:24.955Z,50.53
2017-10-06T04:27:52.460Z,50.55
2017-10-06T04:30:20.016Z,50.53
2017-10-06T04:32:47.553Z,50.48
2017-10-06T04:35:15.046Z,50.48
2017-10-06T04:37:42.583Z,50.48
2017-10-06T04:40:10.249Z,50.37
2017-10-06T04:42:37.738Z,50.39
2017-10-06T04:45:05.312Z,50.35
2017-10-06T04:47:32.836Z,50.43
2017-10-06T04:50:00.314Z,50.30
2017-10-06T04:52:27.798Z,50.30
2017-10-06T04:54:55.323Z,50.24
2017-10-06T04:57:22.865Z,50.14
2017-10-06T04:59:50.280Z,50.22
2017-10-06T05:02:18.086Z,50.16
2017-10-06T05:04:45.578Z,50.08
2017-10-06T05:07:12.985Z,50.14
2017-10-06T05:09:40.565Z,50.00
2017-10-06T05:12:07.988Z,49.96
2017-10-06T05:14:35.406Z,50.02
2017-10-06T05:17:02.871Z,49.90
2017-10-06T05:19:30.286Z,49.84
2017-10-06T05:21:57.698Z,49.94
2017-10-06T05:24:25.164Z,49.87
2017-10-06T05:26:52.676Z,49.80
2017-10-06T05:29:20.099Z,49.73
2017-10-06T05:31:47.870Z,49.66
2017-10-06T05:34:15.290Z,50.04
2017-10-06T05:36:42.716Z,50.02
2017-10-06T05:39:10.188Z,49.94
2017-10-06T05:41:37.612Z,50.07
2017-10-06T05:44:05.202Z,49.96
2017-10-06T05:46:32.646Z,50.04
2017-10-06T05:49:00.085Z,50.05
2017-10-06T05:51:27.499Z,50.07
2017-10-06T05:53:55.263Z,50.08
2017-10-06T05:56:22.688Z,49.99
2017-10-06T05:58:50.102Z,50.04
2017-10-06T06:01:17.967Z,50.08
2017-10-06T06:03:45.399Z,50.09
2017-10-06T06:06:12.820Z,50.13
2017-10-06T06:08:40.270Z,50.03
2017-10-06T06:11:07.736Z,50.18
2017-10-06T06:13:35.220Z,50.07
2017-10-06T06:16:02.686Z,50.03
2017-10-06T06:18:30.120Z,50.07
2017-10-06T06:20:57.535Z,50.21
2017-10-06T06:23:25.129Z,50.07
2017-10-06T06:25:52.648Z,50.11
2017-10-06T06:28:20.068Z,50.01
2017-10-06T06:30:47.562Z,50.01
2017-10-06T06:33:14.996Z,50.11
2017-10-06T06:35:42.432Z,50.08
2017-10-06T06:38:10.120Z,50.15
2017-10-06T06:40:37.538Z,50.15
2017-10-06T06:43:04.957Z,50.10
2017-10-06T06:45:32.518Z,50.12
2017-10-06T06:47:59.961Z,50.12
2017-10-06T06:50:27.385Z,50.22
2017-10-06T06:52:54.844Z,50.23
2017-10-06T06:55:22.265Z,50.27
2017-10-06T06:57:49.689Z,50.33
2017-10-06T07:00:17.191Z,50.26
2017-10-06T07:02:44.615Z,50.41
2017-10-06T07:05:12.036Z,50.48
2017-10-06T07:07:39.712Z,50.47
2017-10-06T07:10:07.229Z,50.52
2017-10-06T07:12:34.658Z,50.55
2017-10-06T07:15:02.144Z,50.58
2017-10-06T07:17:29.586Z,50.60
2017-10-06T07:19:57.127Z,50.60
2017-10-06T07:22:24.799Z,50.60
2017-10-06T07:24:52.229Z,50.68
2017-10-06T07:27:19.661Z,50.62
2017-10-06T07:29:47.447Z,50.63
2017-10-06T07:32:14.865Z,50.60
2017-10-06T07:34:42.290Z,50.66
2017-10-06T07:37:09.776Z,50.63
2017-10-06T07:39:37.186Z,50.69
2017-10-06T07:42:05.377Z,50.68
2017-10-06T07:44:32.930Z,50.59
2017-10-06T07:47:00.345Z,50.60
2017-10-06T07:49:27.764Z,50.70
2017-10-06T07:51:55.258Z,50.74
2017-10-06T07:54:22.685Z,50.79
2017-10-06T07:56:50.132Z,50.89
2017-10-06T07:59:17.644Z,50.96
2017-10-06T08:01:45.059Z,51.05
2017-10-06T08:04:12.474Z,50.86
2017-10-06T08:06:39.968Z,50.99
2017-10-06T08:09:07.380Z,50.99
2017-10-06T08:11:34.849Z,50.94
2017-10-06T08:14:02.361Z,50.88
2017-10-06T08:16:29.779Z,51.34
2017-10-06T08:18:57.198Z,51.04
2017-10-06T08:21:24.660Z,51.25
2017-10-06T08:23:52.270Z,51.33
2017-10-06T08:26:19.692Z,51.28
2017-10-06T08:28:47.443Z,51.35
2017-10-06T08:31:15.866Z,51.11
2017-10-06T08:33:43.278Z,51.41
2017-10-06T08:36:10.745Z,51.41
2017-10-06T08:38:38.161Z,51.37
2017-10-06T08:41:05.573Z,51.43
2017-10-06T08:43:33.046Z,51.49
2017-10-06T08:46:00.492Z,51.40
2017-10-06T08:48:27.916Z,51.36
2017-10-06T08:50:55.769Z,51.58
2017-10-06T08:53:23.183Z,51.92
2017-10-06T08:55:50.606Z,51.91
2017-10-06T08:58:18.559Z,51.97
2017-10-06T09:00:45.991Z,52.07
2017-10-06T09:03:13.421Z,52.07
2017-10-06T09:05:41.208Z,52.08
2017-10-06T09:08:08.634Z,52.18
2017-10-06T09:10:36.094Z,52.18
2017-10-06T09:13:03.887Z,52.11
2017-10-06T09:15:31.442Z,52.12
2017-10-06T09:17:58.944Z,52.07
2017-10-06T09:20:26.412Z,51.98
2017-10-06T09:22:53.848Z,52.09
2017-10-06T09:25:21.263Z,52.21
2017-10-06T09:27:48.723Z,52.33
2017-10-06T09:30:16.140Z,52.70
2017-10-06T09:32:43.576Z,52.40
2017-10-06T09:35:11.079Z,52.33
2017-10-06T09:37:38.487Z,52.21
2017-10-06T09:40:05.932Z,52.17
2017-10-06T09:42:33.877Z,52.03
2017-10-06T09:45:01.307Z,51.82
2017-10-06T09:47:28.763Z,51.49
2017-10-06T09:49:56.531Z,50.87
2017-10-06T09:52:23.958Z,50.42
2017-10-06T09:54:51.399Z,50.75
2017-10-06T09:57:18.899Z,51.06
2017-10-06T09:59:46.433Z,51.42
2017-10-06T10:02:13.858Z,52.22
2017-10-06T10:04:41.400Z,52.81
2017-10-06T10:07:08.820Z,53.18
2017-10-06T10:09:36.338Z,53.04
2017-10-06T10:12:03.982Z,52.81
2017-10-06T10:14:31.415Z,52.84
2017-10-06T10:16:58.843Z,52.77
2017-10-06T10:19:26.314Z,52.68
2017-10-06T10:21:53.754Z,52.63
2017-10-06T10:24:21.474Z,52.64
2017-10-06T10:26:49.340Z,52.61
2017-10-06T10:29:16.765Z,52.32
2017-10-06T10:31:44.193Z,52.17
2017-10-06T10:34:12.012Z,52.14
2017-10-06T10:36:39.444Z,52.19
2017-10-06T10:39:06.935Z,52.27
2017-10-06T10:41:34.393Z,52.23
2017-10-06T10:44:02.507Z,52.17
2017-10-06T10:46:29.940Z,52.14
2017-10-06T10:48:57.632Z,52.08
2017-10-06T10:51:25.051Z,52.06
2017-10-06T10:53:52.482Z,52.01
2017-10-06T10:56:19.965Z,52.05
2017-10-06T10:58:47.425Z,51.96
2017-10-06T11:01:14.863Z,51.97
2017-10-06T11:03:42.340Z,51.89
2017-10-06T11:06:09.884Z,51.82
2017-10-06T11:08:37.294Z,51.86
2017-10-06T11:11:04.854Z,51.78
2017-10-06T11:13:32.279Z,51.76
2017-10-06T11:15:59.700Z,51.70
2017-10-06T11:18:27.244Z,51.68
2017-10-06T11:20:54.665Z,51.74
2017-10-06T11:23:22.086Z,51.73
2017-10-06T11:25:50.059Z,53.41
2017-10-06T11:28:17.487Z,53.51
2017-10-06T11:30:44.905Z,53.40
2017-10-06T11:33:12.775Z,53.22
2017-10-06T11:35:40.201Z,53.08
2017-10-06T11:38:07.615Z,52.93
2017-10-06T11:40:35.072Z,52.96
2017-10-06T11:43:02.595Z,52.87
2017-10-06T11:45:30.017Z,52.72
2017-10-06T11:47:57.856Z,52.57
2017-10-06T11:50:25.380Z,52.13
2017-10-06T11:52:52.799Z,51.93
2017-10-06T11:55:20.372Z,52.02
2017-10-06T11:57:47.795Z,52.01
2017-10-06T12:00:15.216Z,51.78
2017-10-06T12:02:42.992Z,51.95
2017-10-06T12:05:10.411Z,51.51
2017-10-06T12:07:37.852Z,51.74
2017-10-06T12:10:05.694Z,51.64
2017-10-06T12:12:33.126Z,51.71
2017-10-06T12:15:00.569Z,51.69
2017-10-06T12:17:28.058Z,51.73
2017-10-06T12:19:55.600Z,51.71
2017-10-06T12:22:23.059Z,51.72
2017-10-06T12:24:50.512Z,51.67
2017-10-06T12:27:18.008Z,51.66
2017-10-06T12:29:45.426Z,51.58
2017-10-06T12:32:12.928Z,51.33
2017-10-06T12:34:40.365Z,51.58
2017-10-06T12:37:07.785Z,51.80
2017-10-06T12:39:35.336Z,51.85
2017-10-06T12:42:02.762Z,51.81
2017-10-06T12:44:30.190Z,51.77
2017-10-06T12:46:57.649Z,51.71
2017-10-06T12:49:25.082Z,51.49
2017-10-06T12:51:52.492Z,51.64
2017-10-06T12:54:20.547Z,51.41
2017-10-06T12:56:47.979Z,51.44
2017-10-06T12:59:15.402Z,51.62
2017-10-06T13:01:43.143Z,51.21
2017-10-06T13:04:10.679Z,50.41
2017-10-06T13:06:38.108Z,51.52
2017-10-06T13:09:05.862Z,51.37
2017-10-06T13:11:33.269Z,51.55
2017-10-06T13:14:00.684Z,51.42
2017-10-06T13:16:28.127Z,51.44
2017-10-06T13:18:55.570Z,51.45
2017-10-06T13:21:22.988Z,51.59
2017-10-06T13:23:51.223Z,51.78
2017-10-06T13:26:18.705Z,51.71
2017-10-06T13:28:46.137Z,51.67
2017-10-06T13:31:14.018Z,51.66
2017-10-06T13:33:41.485Z,51.66
2017-10-06T13:36:09.077Z,51.51
2017-10-06T13:38:36.561Z,51.69
2017-10-06T13:41:03.991Z,51.52
2017-10-06T13:43:31.412Z,51.90
2017-10-06T13:45:58.887Z,51.77
2017-10-06T13:48:26.383Z,51.70
2017-10-06T13:50:53.807Z,51.69
2017-10-06T13:53:21.302Z,51.56
2017-10-06T13:55:48.725Z,51.47
2017-10-06T13:58:16.327Z,51.32
2017-10-06T14:00:44.229Z,51.42
2017-10-06T14:03:11.694Z,51.44
2017-10-06T14:05:39.117Z,51.27
2017-10-06T14:08:06.616Z,51.37
2017-10-06T14:10:34.031Z,51.34
2017-10-06T14:13:01.461Z,51.38
2017-10-06T14:15:28.949Z,51.03
2017-10-06T14:17:56.418Z,51.23
2017-10-06T14:20:23.849Z,51.14
2017-10-06T14:22:51.324Z,51.27
2017-10-06T14:25:18.747Z,51.14
2017-10-06T14:27:46.205Z,51.10
2017-10-06T14:30:13.665Z,51.12
2017-10-06T14:32:41.094Z,50.88
2017-10-06T14:35:08.524Z,51.03
2017-10-06T14:37:36.021Z,50.99
2017-10-06T14:43:06.984Z,51.04
2017-10-06T14:45:34.409Z,51.13
2017-10-06T14:48:01.844Z,51.22
2017-10-06T14:50:29.309Z,50.95
2017-10-06T14:52:57.232Z,51.17
2017-10-06T14:55:24.665Z,51.04
2017-10-06T14:57:52.637Z,51.03
2017-10-06T15:00:23.290Z,50.97
2017-10-06T15:02:51.234Z,50.88
2017-10-06T15:05:18.729Z,50.65
2017-10-06T15:07:46.155Z,50.89
2017-10-06T15:10:13.870Z,50.94
2017-10-06T15:12:41.301Z,50.71
2017-10-06T15:15:08.762Z,50.88
2017-10-06T15:17:36.417Z,51.08
2017-10-06T15:20:03.869Z,50.96
2017-10-06T15:22:31.299Z,50.83
2017-10-06T15:24:59.160Z,50.77
2017-10-06T15:27:26.584Z,50.70
2017-10-06T15:29:54.064Z,50.52
2017-10-06T15:32:21.581Z,50.21
2017-10-06T15:34:49.023Z,50.17
2017-10-06T15:37:16.453Z,50.64
2017-10-06T15:39:44.110Z,50.55
2017-10-06T15:42:11.583Z,50.37
2017-10-06T15:44:39.034Z,50.66
2017-10-06T15:47:06.506Z,50.43
2017-10-06T15:49:33.930Z,50.76
2017-10-06T15:52:01.370Z,50.62
2017-10-06T15:54:29.385Z,50.47
2017-10-06T15:56:56.832Z,50.52
2017-10-06T15:59:24.295Z,50.42
2017-10-06T16:01:52.084Z,50.34
2017-10-06T16:04:19.512Z,50.11
2017-10-06T16:06:46.969Z,50.20
2017-10-06T16:09:14.509Z,50.29
2017-10-06T16:11:41.930Z,49.86
2017-10-06T16:14:09.340Z,50.26
2017-10-06T16:16:37.188Z,50.20
2017-10-06T16:19:04.676Z,50.22
2017-10-06T16:21:32.108Z,50.40
2017-10-06T16:23:59.566Z,51.32
2017-10-06T16:26:27.109Z,50.96
2017-10-06T16:28:54.711Z,50.93
2017-10-06T16:31:22.192Z,50.89
2017-10-06T16:33:49.616Z,50.58
2017-10-06T16:36:17.140Z,50.91
2017-10-06T16:38:44.615Z,50.82
2017-10-06T16:41:12.028Z,50.68
2017-10-06T16:43:39.456Z,50.68
2017-10-06T16:46:07.087Z,50.67
2017-10-06T16:48:34.604Z,50.64
2017-10-06T16:51:02.020Z,50.27
2017-10-06T16:53:29.500Z,50.61
2017-10-06T16:55:56.935Z,50.51
2017-10-06T16:58:24.363Z,50.61
2017-10-06T17:00:52.612Z,50.56
2017-10-06T17:03:20.071Z,50.50
2017-10-06T17:05:47.480Z,50.34
2017-10-06T17:08:15.328Z,50.40
2017-10-06T17:10:42.799Z,50.39
2017-10-06T17:13:10.230Z,50.39
2017-10-06T17:15:37.704Z,50.36
2017-10-06T17:18:05.375Z,50.29
2017-10-06T17:20:32.802Z,50.17
2017-10-06T17:23:00.352Z,50.40
2017-10-06T17:25:27.905Z,50.33
2017-10-06T17:27:55.824Z,50.26
2017-10-06T17:30:23.276Z,50.49
2017-10-06T17:32:50.707Z,50.40
2017-10-06T17:35:18.222Z,50.09
2017-10-06T17:37:45.798Z,50.67
2017-10-06T17:40:13.346Z,50.35
2017-10-06T17:42:40.758Z,50.61
2017-10-06T17:45:08.299Z,50.39
2017-10-06T17:47:35.745Z,50.98
2017-10-06T17:50:03.650Z,50.97
2017-10-06T17:52:31.148Z,51.01
2017-10-06T17:54:58.626Z,51.32
2017-10-06T17:57:26.123Z,51.16
2017-10-06T17:59:53.601Z,51.11
2017-10-06T18:02:21.026Z,51.21
2017-10-06T18:04:48.470Z,51.12
2017-10-06T18:07:16.182Z,51.15
2017-10-06T18:09:43.697Z,51.06
2017-10-06T18:12:11.237Z,51.22
2017-10-06T18:14:38.742Z,51.09
2017-10-06T18:17:07.036Z,51.16
2017-10-06T18:19:34.507Z,51.12
2017-10-06T18:22:01.964Z,50.76
2017-10-06T18:24:29.394Z,50.75
2017-10-06T18:26:56.918Z,50.71
2017-10-06T18:29:24.770Z,50.72
2017-10-06T18:31:52.197Z,50.79
2017-10-06T18:34:19.611Z,50.70
2017-10-06T18:36:47.145Z,50.98
2017-10-06T18:39:14.620Z,50.89
2017-10-06T18:41:42.057Z,50.97
2017-10-06T18:44:09.559Z,51.21
2017-10-06T18:46:37.006Z,51.09
2017-10-06T18:49:04.648Z,50.98
2017-10-06T18:51:32.117Z,50.95
2017-10-06T18:53:59.538Z,50.89
2017-10-06T18:56:27.014Z,50.88
2017-10-06T18:58:54.548Z,51.05
2017-10-06T19:01:21.992Z,50.98
2017-10-06T19:03:49.415Z,50.87
2017-10-06T19:06:17.237Z,51.02
2017-10-06T19:08:44.657Z,51.04
2017-10-06T19:11:12.085Z,51.07
2017-10-06T19:13:39.920Z,51.02
2017-10-06T19:16:07.340Z,50.96
2017-10-06T19:18:34.794Z,50.88
2017-10-06T19:21:02.356Z,50.94
2017-10-06T19:23:29.858Z,50.83
2017-10-06T19:25:57.272Z,50.95
2017-10-06T19:28:24.868Z,50.92
2017-10-06T19:30:53.220Z,50.94
2017-10-06T19:33:20.660Z,50.92
2017-10-06T19:35:48.573Z,50.88
2017-10-06T19:38:16.004Z,50.90
2017-10-06T19:40:43.423Z,50.88
2017-10-06T19:43:11.012Z,50.95
2017-10-06T19:45:38.538Z,51.02
2017-10-06T19:48:05.952Z,51.00
2017-10-06T19:50:33.732Z,51.14
2017-10-06T19:53:01.157Z,51.30
2017-10-06T19:55:28.587Z,51.35
2017-10-06T19:57:56.225Z,51.22
2017-10-06T20:00:23.648Z,51.14
2017-10-06T20:02:51.100Z,51.15
2017-10-06T20:05:18.961Z,51.25
2017-10-06T20:07:46.381Z,50.91
2017-10-06T20:10:13.877Z,50.61
2017-10-06T20:12:41.523Z,50.66
2017-10-06T20:15:09.024Z,50.90
2017-10-06T20:17:36.525Z,50.83
2017-10-06T20:20:04.412Z,50.76
2017-10-06T20:22:31.827Z,50.63
2017-10-06T20:24:59.243Z,50.75
2017-10-06T20:27:26.744Z,50.76
2017-10-06T20:29:54.212Z,50.68
2017-10-06T20:32:22.607Z,50.63
2017-10-06T20:34:50.098Z,50.74
2017-10-06T20:37:17.525Z,50.67
2017-10-06T20:39:45.011Z,50.77
2017-10-06T20:42:12.723Z,50.65
2017-10-06T20:44:40.138Z,50.64
2017-10-06T20:47:07.646Z,50.68
2017-10-06T20:49:35.136Z,50.74
2017-10-06T20:52:02.665Z,50.70
2017-10-06T20:54:30.094Z,50.60
2017-10-06T20:56:57.580Z,50.66
2017-10-06T20:59:25.142Z,50.66
2017-10-06T21:01:52.589Z,50.67
2017-10-06T21:04:20.374Z,50.46
2017-10-06T21:06:47.848Z,50.72
2017-10-06T21:09:15.286Z,50.65
2017-10-06T21:11:42.755Z,50.51
2017-10-06T21:14:10.169Z,50.57
2017-10-06T21:16:37.599Z,50.60
2017-10-06T21:19:05.308Z,50.60
2017-10-06T21:21:32.738Z,50.50
2017-10-06T21:24:00.175Z,50.52
2017-10-06T21:26:28.095Z,50.51
2017-10-06T21:28:55.568Z,50.47
2017-10-06T21:31:22.981Z,50.45
2017-10-06T21:33:50.570Z,50.35
2017-10-06T21:36:17.997Z,50.49
2017-10-06T21:38:45.422Z,50.54
2017-10-06T21:41:13.037Z,50.51
2017-10-06T21:43:40.466Z,50.44
2017-10-06T21:46:07.895Z,50.46
2017-10-06T21:48:35.511Z,50.48
2017-10-06T21:51:02.939Z,50.58
2017-10-06T21:53:30.396Z,50.53
2017-10-06T21:55:58.301Z,50.50
2017-10-06T21:58:25.754Z,50.51
2017-10-06T22:00:53.883Z,50.46
2017-10-06T22:03:21.704Z,50.58
2017-10-06T22:05:49.109Z,50.53
2017-10-06T22:08:16.572Z,50.51
2017-10-06T22:10:44.139Z,50.49
2017-10-06T22:13:11.551Z,50.52
2017-10-06T22:15:39.005Z,50.40
2017-10-06T22:18:06.482Z,50.39
2017-10-06T22:20:33.903Z,50.48
2017-10-06T22:23:01.327Z,50.42
2017-10-06T22:25:28.993Z,50.48
2017-10-06T22:27:56.412Z,50.38
2017-10-06T22:30:23.840Z,50.49
2017-10-06T22:32:51.299Z,50.43
2017-10-06T22:35:18.741Z,50.46
2017-10-06T22:37:46.149Z,50.39
2017-10-06T22:40:14.063Z,50.29
2017-10-06T22:42:41.597Z,50.35
2017-10-06T22:45:09.007Z,50.39
2017-10-06T22:47:36.479Z,50.39
2017-10-06T22:50:03.901Z,50.31
2017-10-06T22:52:31.310Z,50.30
2017-10-06T22:54:58.927Z,50.32
2017-10-06T22:57:26.388Z,50.31
2017-10-06T22:59:53.804Z,50.41
2017-10-06T23:02:22.022Z,50.36
2017-10-06T23:04:49.439Z,50.35
2017-10-06T23:07:16.867Z,50.36
2017-10-06T23:09:44.861Z,50.32
2017-10-06T23:12:12.280Z,50.29
2017-10-06T23:14:39.704Z,50.37
2017-10-06T23:17:07.223Z,50.32
2017-10-06T23:19:34.631Z,50.38
2017-10-06T23:22:02.048Z,50.38
2017-10-06T23:24:30.023Z,50.27
2017-10-06T23:26:57.462Z,50.25
2017-10-06T23:29:24.872Z,50.28
2017-10-06T23:31:52.340Z,50.33
2017-10-06T23:34:19.762Z,50.22
2017-10-06T23:36:47.167Z,50.20
2017-10-06T23:39:15.051Z,50.21
2017-10-06T23:41:42.543Z,50.28
2017-10-06T23:44:09.953Z,50.29
2017-10-06T23:46:37.841Z,50.24
2017-10-06T23:49:05.309Z,50.22
2017-10-06T23:51:32.750Z,50.20
2017-10-06T23:54:00.225Z,50.08
2017-10-06T23:56:27.760Z,50.02
2017-10-06T23:58:55.166Z,50.00
